sensor_id;sensor_type;location;lat;lon;timestamp;pressure;altitude;pressure_sealevel;temperature;humidity
73817;BME280;62146;53.232;-1.304;2023-04-01T00:01:24;98886.97;;;9.52;100.00
73817;BME280;62146;53.232;-1.304;2023-04-01T00:03:51;98884.34;;;9.47;100.00
73817;BME280;62146;53.232;-1.304;2023-04-01T00:06:18;98893.34;;;9.46;100.00
73817;BME280;62146;53.232;-1.304;2023-04-01T00:08:46;98893.88;;;9.43;100.00
73817;BME280;62146;53.232;-1.304;2023-04-01T00:11:13;98896.00;;;9.41;100.00
73817;BME280;62146;53.232;-1.304;2023-04-01T00:13:41;98889.91;;;9.40;100.00
73817;BME280;62146;53.232;-1.304;2023-04-01T00:16:08;98897.03;;;9.40;100.00
73817;BME280;62146;53.232;-1.304;2023-04-01T00:18:46;98896.78;;;9.36;100.00
73817;BME280;62146;53.232;-1.304;2023-04-01T00:21:16;98903.66;;;9.33;100.00
73817;BME280;62146;53.232;-1.304;2023-04-01T00:23:43;98906.31;;;9.33;100.00
73817;BME280;62146;53.232;-1.304;2023-04-01T00:26:10;98905.81;;;9.31;100.00
73817;BME280;62146;53.232;-1.304;2023-04-01T00:28:39;98910.03;;;9.32;100.00
73817;BME280;62146;53.232;-1.304;2023-04-01T00:31:07;98914.53;;;9.31;100.00
73817;BME280;62146;53.232;-1.304;2023-04-01T00:33:34;98908.72;;;9.29;100.00
73817;BME280;62146;53.232;-1.304;2023-04-01T00:36:21;98912.41;;;9.28;100.00
73817;BME280;62146;53.232;-1.304;2023-04-01T00:38:48;98915.59;;;9.25;100.00
73817;BME280;62146;53.232;-1.304;2023-04-01T00:41:17;98915.88;;;9.24;100.00
73817;BME280;62146;53.232;-1.304;2023-04-01T00:43:46;98923.00;;;9.23;100.00
73817;BME280;62146;53.232;-1.304;2023-04-01T00:46:13;98924.88;;;9.23;100.00
73817;BME280;62146;53.232;-1.304;2023-04-01T00:48:48;98927.22;;;9.24;100.00
73817;BME280;62146;53.232;-1.304;2023-04-01T00:51:22;98932.00;;;9.22;100.00
73817;BME280;62146;53.232;-1.304;2023-04-01T00:53:53;98929.59;;;9.21;100.00
73817;BME280;62146;53.232;-1.304;2023-04-01T00:56:30;98928.03;;;9.20;100.00
73817;BME280;62146;53.232;-1.304;2023-04-01T00:59:02;98928.81;;;9.20;100.00
73817;BME280;62146;53.232;-1.304;2023-04-01T01:01:29;98929.09;;;9.19;100.00
73817;BME280;62146;53.232;-1.304;2023-04-01T01:03:56;98938.09;;;9.23;100.00
73817;BME280;62146;53.232;-1.304;2023-04-01T01:31:17;98954.75;;;9.04;100.00
73817;BME280;62146;53.232;-1.304;2023-04-01T01:36:32;98966.41;;;9.03;100.00
73817;BME280;62146;53.232;-1.304;2023-04-01T01:39:04;98968.22;;;9.02;100.00
73817;BME280;62146;53.232;-1.304;2023-04-01T01:41:34;98976.44;;;9.01;100.00
73817;BME280;62146;53.232;-1.304;2023-04-01T01:44:04;98968.78;;;8.99;100.00
73817;BME280;62146;53.232;-1.304;2023-04-01T01:46:32;98976.94;;;8.98;100.00
73817;BME280;62146;53.232;-1.304;2023-04-01T01:49:00;98970.09;;;8.97;100.00
73817;BME280;62146;53.232;-1.304;2023-04-01T01:51:28;98974.59;;;8.96;100.00
73817;BME280;62146;53.232;-1.304;2023-04-01T01:53:54;98979.88;;;8.96;100.00
73817;BME280;62146;53.232;-1.304;2023-04-01T01:56:23;98988.03;;;8.95;100.00
73817;BME280;62146;53.232;-1.304;2023-04-01T01:59:14;98980.66;;;8.92;100.00
73817;BME280;62146;53.232;-1.304;2023-04-01T02:01:44;98987.25;;;8.89;100.00
73817;BME280;62146;53.232;-1.304;2023-04-01T02:04:13;98991.75;;;8.89;100.00
73817;BME280;62146;53.232;-1.304;2023-04-01T02:06:49;98994.41;;;8.89;100.00
73817;BME280;62146;53.232;-1.304;2023-04-01T02:09:19;99006.28;;;8.86;100.00
73817;BME280;62146;53.232;-1.304;2023-04-01T02:11:49;99013.19;;;8.87;100.00
73817;BME280;62146;53.232;-1.304;2023-04-01T02:14:20;99014.75;;;8.88;100.00
73817;BME280;62146;53.232;-1.304;2023-04-01T02:16:58;99018.47;;;8.87;100.00
73817;BME280;62146;53.232;-1.304;2023-04-01T02:19:34;99019.50;;;8.86;100.00
73817;BME280;62146;53.232;-1.304;2023-04-01T02:22:05;99025.06;;;8.85;100.00
73817;BME280;62146;53.232;-1.304;2023-04-01T02:24:35;99033.78;;;8.85;100.00
73817;BME280;62146;53.232;-1.304;2023-04-01T02:27:04;99030.06;;;8.82;100.00
73817;BME280;62146;53.232;-1.304;2023-04-01T02:29:31;99035.34;;;8.82;100.00
73817;BME280;62146;53.232;-1.304;2023-04-01T02:31:58;99036.16;;;8.82;100.00
73817;BME280;62146;53.232;-1.304;2023-04-01T02:34:25;99032.72;;;8.82;100.00
73817;BME280;62146;53.232;-1.304;2023-04-01T02:36:52;99043.56;;;8.80;100.00
73817;BME280;62146;53.232;-1.304;2023-04-01T02:39:20;99035.88;;;8.79;100.00
73817;BME280;62146;53.232;-1.304;2023-04-01T02:41:48;99043.00;;;8.78;100.00
73817;BME280;62146;53.232;-1.304;2023-04-01T02:44:15;99047.22;;;8.79;100.00
73817;BME280;62146;53.232;-1.304;2023-04-01T02:46:42;99043.00;;;8.78;100.00
73817;BME280;62146;53.232;-1.304;2023-04-01T02:49:09;99046.72;;;8.77;100.00
73817;BME280;62146;53.232;-1.304;2023-04-01T02:51:36;99053.84;;;8.77;100.00
73817;BME280;62146;53.232;-1.304;2023-04-01T02:54:02;99053.31;;;8.75;100.00
73817;BME280;62146;53.232;-1.304;2023-04-01T02:56:29;99060.44;;;8.74;100.00
73817;BME280;62146;53.232;-1.304;2023-04-01T02:58:56;99058.84;;;8.73;100.00
73817;BME280;62146;53.232;-1.304;2023-04-01T03:01:23;99059.38;;;8.70;100.00
73817;BME280;62146;53.232;-1.304;2023-04-01T03:03:49;99063.59;;;8.71;100.00
73817;BME280;62146;53.232;-1.304;2023-04-01T03:06:17;99061.50;;;8.68;100.00
73817;BME280;62146;53.232;-1.304;2023-04-01T03:08:44;99074.94;;;8.67;100.00
73817;BME280;62146;53.232;-1.304;2023-04-01T03:11:11;99071.50;;;8.66;100.00
73817;BME280;62146;53.232;-1.304;2023-04-01T03:13:38;99078.38;;;8.67;100.00
73817;BME280;62146;53.232;-1.304;2023-04-01T03:16:06;99085.53;;;8.67;100.00
73817;BME280;62146;53.232;-1.304;2023-04-01T03:18:33;99091.88;;;8.66;100.00
73817;BME280;62146;53.232;-1.304;2023-04-01T03:21:14;99088.66;;;8.64;100.00
73817;BME280;62146;53.232;-1.304;2023-04-01T03:23:41;99091.59;;;8.62;100.00
73817;BME280;62146;53.232;-1.304;2023-04-01T03:26:07;99103.22;;;8.61;100.00
73817;BME280;62146;53.232;-1.304;2023-04-01T03:28:34;99103.22;;;8.61;100.00
73817;BME280;62146;53.232;-1.304;2023-04-01T03:31:01;99099.22;;;8.59;100.00
73817;BME280;62146;53.232;-1.304;2023-04-01T03:33:28;99088.94;;;8.57;100.00
73817;BME280;62146;53.232;-1.304;2023-04-01T03:35:55;99099.75;;;8.56;100.00
73817;BME280;62146;53.232;-1.304;2023-04-01T03:38:22;99103.44;;;8.55;100.00
73817;BME280;62146;53.232;-1.304;2023-04-01T03:40:48;99104.50;;;8.54;100.00
73817;BME280;62146;53.232;-1.304;2023-04-01T03:43:15;99100.50;;;8.52;100.00
73817;BME280;62146;53.232;-1.304;2023-04-01T03:45:44;99097.88;;;8.52;100.00
73817;BME280;62146;53.232;-1.304;2023-04-01T03:48:11;99099.47;;;8.53;100.00
73817;BME280;62146;53.232;-1.304;2023-04-01T03:50:38;99093.91;;;8.49;100.00
73817;BME280;62146;53.232;-1.304;2023-04-01T03:53:05;99102.38;;;8.51;100.00
73817;BME280;62146;53.232;-1.304;2023-04-01T03:55:31;99102.63;;;8.50;100.00
73817;BME280;62146;53.232;-1.304;2023-04-01T03:57:59;99105.50;;;8.48;100.00
73817;BME280;62146;53.232;-1.304;2023-04-01T04:00:29;99104.72;;;8.48;100.00
73817;BME280;62146;53.232;-1.304;2023-04-01T04:02:57;99106.84;;;8.46;100.00
73817;BME280;62146;53.232;-1.304;2023-04-01T04:05:25;99113.72;;;8.47;100.00
73817;BME280;62146;53.232;-1.304;2023-04-01T04:07:52;99119.22;;;8.45;100.00
73817;BME280;62146;53.232;-1.304;2023-04-01T04:10:19;99119.78;;;8.42;100.00
73817;BME280;62146;53.232;-1.304;2023-04-01T04:12:46;99114.72;;;8.41;100.00
73817;BME280;62146;53.232;-1.304;2023-04-01T04:15:12;99127.94;;;8.41;100.00
73817;BME280;62146;53.232;-1.304;2023-04-01T04:17:39;99131.38;;;8.41;100.00
73817;BME280;62146;53.232;-1.304;2023-04-01T04:20:06;99132.69;;;8.39;100.00
73817;BME280;62146;53.232;-1.304;2023-04-01T04:22:33;99141.13;;;8.36;100.00
73817;BME280;62146;53.232;-1.304;2023-04-01T04:25:00;99140.59;;;8.34;100.00
73817;BME280;62146;53.232;-1.304;2023-04-01T04:27:26;99148.53;;;8.34;100.00
73817;BME280;62146;53.232;-1.304;2023-04-01T04:29:53;99156.69;;;8.32;100.00
73817;BME280;62146;53.232;-1.304;2023-04-01T04:32:19;99154.53;;;8.29;100.00
73817;BME280;62146;53.232;-1.304;2023-04-01T04:34:46;99156.16;;;8.30;100.00
73817;BME280;62146;53.232;-1.304;2023-04-01T04:37:13;99157.19;;;8.29;100.00
73817;BME280;62146;53.232;-1.304;2023-04-01T04:39:39;99155.31;;;8.25;100.00
73817;BME280;62146;53.232;-1.304;2023-04-01T04:42:06;99161.38;;;8.26;100.00
73817;BME280;62146;53.232;-1.304;2023-04-01T04:44:32;99172.22;;;8.24;100.00
73817;BME280;62146;53.232;-1.304;2023-04-01T04:46:59;99170.88;;;8.22;100.00
73817;BME280;62146;53.232;-1.304;2023-04-01T04:49:25;99168.22;;;8.22;100.00
73817;BME280;62146;53.232;-1.304;2023-04-01T04:51:52;99176.41;;;8.20;100.00
73817;BME280;62146;53.232;-1.304;2023-04-01T04:54:19;99178.50;;;8.18;100.00
73817;BME280;62146;53.232;-1.304;2023-04-01T04:56:45;99177.69;;;8.18;100.00
73817;BME280;62146;53.232;-1.304;2023-04-01T04:59:12;99178.75;;;8.17;100.00
73817;BME280;62146;53.232;-1.304;2023-04-01T05:01:39;99179.81;;;8.16;100.00
73817;BME280;62146;53.232;-1.304;2023-04-01T05:04:05;99183.47;;;8.15;100.00
73817;BME280;62146;53.232;-1.304;2023-04-01T05:06:32;99180.31;;;8.13;100.00
73817;BME280;62146;53.232;-1.304;2023-04-01T05:08:59;99183.25;;;8.16;100.00
73817;BME280;62146;53.232;-1.304;2023-04-01T05:11:25;99183.75;;;8.13;100.00
73817;BME280;62146;53.232;-1.304;2023-04-01T05:13:52;99184.25;;;8.10;100.00
73817;BME280;62146;53.232;-1.304;2023-04-01T05:16:20;99188.72;;;8.10;100.00
73817;BME280;62146;53.232;-1.304;2023-04-01T05:18:47;99198.50;;;8.09;100.00
73817;BME280;62146;53.232;-1.304;2023-04-01T05:21:14;99201.63;;;8.06;100.00
73817;BME280;62146;53.232;-1.304;2023-04-01T05:23:42;99206.34;;;8.04;100.00
73817;BME280;62146;53.232;-1.304;2023-04-01T05:26:11;99201.91;;;8.05;100.00
73817;BME280;62146;53.232;-1.304;2023-04-01T05:28:38;99211.06;;;8.02;100.00
73817;BME280;62146;53.232;-1.304;2023-04-01T05:31:05;99205.00;;;8.02;100.00
73817;BME280;62146;53.232;-1.304;2023-04-01T05:33:33;99212.94;;;8.02;100.00
73817;BME280;62146;53.232;-1.304;2023-04-01T05:36:10;99215.03;;;8.00;100.00
73817;BME280;62146;53.232;-1.304;2023-04-01T05:38:37;99224.78;;;8.00;100.00
73817;BME280;62146;53.232;-1.304;2023-04-01T05:41:04;99234.81;;;7.98;100.00
73817;BME280;62146;53.232;-1.304;2023-04-01T05:43:31;99227.38;;;7.95;100.00
73817;BME280;62146;53.232;-1.304;2023-04-01T05:45:57;99233.44;;;7.95;100.00
73817;BME280;62146;53.232;-1.304;2023-04-01T05:48:24;99237.94;;;7.95;100.00
73817;BME280;62146;53.232;-1.304;2023-04-01T05:50:51;99244.81;;;7.96;100.00
73817;BME280;62146;53.232;-1.304;2023-04-01T05:53:18;99251.41;;;7.93;100.00
73817;BME280;62146;53.232;-1.304;2023-04-01T05:55:44;99247.16;;;7.92;100.00
73817;BME280;62146;53.232;-1.304;2023-04-01T05:58:11;99252.19;;;7.94;100.00
73817;BME280;62146;53.232;-1.304;2023-04-01T06:00:38;99260.09;;;7.94;100.00
73817;BME280;62146;53.232;-1.304;2023-04-01T06:03:04;99261.16;;;7.93;100.00
73817;BME280;62146;53.232;-1.304;2023-04-01T06:05:39;99257.97;;;7.91;100.00
73817;BME280;62146;53.232;-1.304;2023-04-01T06:08:12;99263.25;;;7.91;100.00
73817;BME280;62146;53.232;-1.304;2023-04-01T06:21:50;99296.50;;;7.92;100.00
73817;BME280;62146;53.232;-1.304;2023-04-01T06:54:37;99326.44;;;8.02;100.00
73817;BME280;62146;53.232;-1.304;2023-04-01T06:57:24;99337.56;;;8.04;100.00
73817;BME280;62146;53.232;-1.304;2023-04-01T06:59:57;99340.75;;;8.06;100.00
73817;BME280;62146;53.232;-1.304;2023-04-01T07:02:36;99344.75;;;8.08;100.00
73817;BME280;62146;53.232;-1.304;2023-04-01T07:05:06;99346.34;;;8.09;100.00
73817;BME280;62146;53.232;-1.304;2023-04-01T07:07:46;99351.94;;;8.13;100.00
73817;BME280;62146;53.232;-1.304;2023-04-01T07:10:31;99358.56;;;8.15;100.00
73817;BME280;62146;53.232;-1.304;2023-04-01T07:13:04;99349.31;;;8.18;100.00
73817;BME280;62146;53.232;-1.304;2023-04-01T07:15:41;99351.97;;;8.18;100.00
73817;BME280;62146;53.232;-1.304;2023-04-01T07:20:59;99358.91;;;8.24;100.00
73817;BME280;62146;53.232;-1.304;2023-04-01T07:23:39;99366.06;;;8.28;100.00
73817;BME280;62146;53.232;-1.304;2023-04-01T07:26:19;99365.03;;;8.29;100.00
73817;BME280;62146;53.232;-1.304;2023-04-01T07:28:48;99370.88;;;8.31;100.00
73817;BME280;62146;53.232;-1.304;2023-04-01T07:34:45;99382.53;;;8.35;100.00
73817;BME280;62146;53.232;-1.304;2023-04-01T07:37:50;99379.63;;;8.36;100.00
73817;BME280;62146;53.232;-1.304;2023-04-01T07:40:21;99389.69;;;8.39;100.00
73817;BME280;62146;53.232;-1.304;2023-04-01T07:48:41;99400.56;;;8.43;100.00
73817;BME280;62146;53.232;-1.304;2023-04-01T07:51:18;99408.00;;;8.46;100.00
73817;BME280;62146;53.232;-1.304;2023-04-01T08:07:25;99429.25;;;8.60;100.00
73817;BME280;62146;53.232;-1.304;2023-04-01T08:21:04;99448.94;;;8.74;100.00
73817;BME280;62146;53.232;-1.304;2023-04-01T08:23:37;99456.38;;;8.77;100.00
73817;BME280;62146;53.232;-1.304;2023-04-01T08:28:52;99456.97;;;8.84;100.00
73817;BME280;62146;53.232;-1.304;2023-04-01T08:34:04;99462.84;;;8.91;100.00
73817;BME280;62146;53.232;-1.304;2023-04-01T08:36:37;99469.47;;;8.93;100.00
73817;BME280;62146;53.232;-1.304;2023-04-01T08:39:12;99472.41;;;8.97;100.00
73817;BME280;62146;53.232;-1.304;2023-04-01T08:50:06;99482.56;;;9.09;100.00
73817;BME280;62146;53.232;-1.304;2023-04-01T09:00:38;99502.47;;;9.17;100.00
73817;BME280;62146;53.232;-1.304;2023-04-01T09:09:03;99512.84;;;9.23;100.00
73817;BME280;62146;53.232;-1.304;2023-04-01T09:23:28;99525.09;;;9.29;100.00
73817;BME280;62146;53.232;-1.304;2023-04-01T09:34:53;99536.31;;;9.46;100.00
73817;BME280;62146;53.232;-1.304;2023-04-01T09:45:47;99538.31;;;9.65;100.00
73817;BME280;62146;53.232;-1.304;2023-04-01T09:51:11;99546.56;;;9.73;100.00
73817;BME280;62146;53.232;-1.304;2023-04-01T09:53:54;99552.44;;;9.75;100.00
73817;BME280;62146;53.232;-1.304;2023-04-01T09:56:52;99553.50;;;9.79;100.00
73817;BME280;62146;53.232;-1.304;2023-04-01T10:11:23;99581.59;;;9.80;100.00
73817;BME280;62146;53.232;-1.304;2023-04-01T10:14:03;99585.03;;;9.81;100.00
73817;BME280;62146;53.232;-1.304;2023-04-01T10:36:31;99609.91;;;9.80;100.00
73817;BME280;62146;53.232;-1.304;2023-04-01T10:48:21;99630.66;;;9.88;100.00
73817;BME280;62146;53.232;-1.304;2023-04-01T10:51:19;99637.31;;;9.90;100.00
73817;BME280;62146;53.232;-1.304;2023-04-01T10:57:15;99637.34;;;9.95;100.00
73817;BME280;62146;53.232;-1.304;2023-04-01T11:00:31;99646.38;;;9.99;100.00
73817;BME280;62146;53.232;-1.304;2023-04-01T11:03:21;99646.41;;;10.04;100.00
73817;BME280;62146;53.232;-1.304;2023-04-01T11:06:30;99645.41;;;10.10;100.00
73817;BME280;62146;53.232;-1.304;2023-04-01T11:09:25;99656.53;;;10.16;100.00
73817;BME280;62146;53.232;-1.304;2023-04-01T11:12:03;99657.41;;;10.22;100.00
73817;BME280;62146;53.232;-1.304;2023-04-01T11:26:18;99682.19;;;10.47;100.00
73817;BME280;62146;53.232;-1.304;2023-04-01T11:37:29;99699.53;;;10.64;100.00
73817;BME280;62146;53.232;-1.304;2023-04-01T11:40:05;99703.56;;;10.67;100.00
73817;BME280;62146;53.232;-1.304;2023-04-01T11:42:53;99701.97;;;10.70;100.00
73817;BME280;62146;53.232;-1.304;2023-04-01T11:56:59;99722.28;;;11.01;100.00
73817;BME280;62146;53.232;-1.304;2023-04-01T12:02:43;99731.91;;;11.17;100.00
73817;BME280;62146;53.232;-1.304;2023-04-01T12:05:34;99736.44;;;11.21;100.00
73817;BME280;62146;53.232;-1.304;2023-04-01T12:08:13;99747.06;;;11.26;100.00
73817;BME280;62146;53.232;-1.304;2023-04-01T12:10:59;99743.34;;;11.27;100.00
73817;BME280;62146;53.232;-1.304;2023-04-01T12:13:42;99753.72;;;11.28;100.00
73817;BME280;62146;53.232;-1.304;2023-04-01T12:19:09;99768.06;;;11.27;100.00
73817;BME280;62146;53.232;-1.304;2023-04-01T12:27:41;99771.47;;;11.23;100.00
73817;BME280;62146;53.232;-1.304;2023-04-01T12:30:32;99773.88;;;11.24;100.00
73817;BME280;62146;53.232;-1.304;2023-04-01T12:33:28;99770.97;;;11.26;100.00
73817;BME280;62146;53.232;-1.304;2023-04-01T12:42:17;99786.16;;;11.35;100.00
73817;BME280;62146;53.232;-1.304;2023-04-01T12:50:31;99798.91;;;11.38;100.00
73817;BME280;62146;53.232;-1.304;2023-04-01T12:55:52;99804.47;;;11.37;100.00
73817;BME280;62146;53.232;-1.304;2023-04-01T12:58:30;99802.06;;;11.35;100.00
73817;BME280;62146;53.232;-1.304;2023-04-01T13:03:47;99811.63;;;11.36;100.00
73817;BME280;62146;53.232;-1.304;2023-04-01T13:06:45;99814.84;;;11.38;100.00
73817;BME280;62146;53.232;-1.304;2023-04-01T13:09:24;99817.25;;;11.40;100.00
73817;BME280;62146;53.232;-1.304;2023-04-01T13:15:19;99839.31;;;11.45;100.00
73817;BME280;62146;53.232;-1.304;2023-04-01T13:26:29;99846.22;;;11.46;100.00
73817;BME280;62146;53.232;-1.304;2023-04-01T13:35:29;99860.03;;;11.48;100.00
73817;BME280;62146;53.232;-1.304;2023-04-01T13:43:45;99871.47;;;11.53;100.00
73817;BME280;62146;53.232;-1.304;2023-04-01T13:49:04;99872.31;;;11.59;100.00
73817;BME280;62146;53.232;-1.304;2023-04-01T13:51:52;99878.72;;;11.63;100.00
73817;BME280;62146;53.232;-1.304;2023-04-01T14:16:55;99905.13;;;11.89;100.00
73817;BME280;62146;53.232;-1.304;2023-04-01T14:33:04;99935.22;;;12.04;100.00
73817;BME280;62146;53.232;-1.304;2023-04-01T14:49:28;99955.72;;;12.13;100.00
73817;BME280;62146;53.232;-1.304;2023-04-01T14:52:04;99959.72;;;12.16;100.00
73817;BME280;62146;53.232;-1.304;2023-04-01T14:54:37;99960.53;;;12.16;100.00
73817;BME280;62146;53.232;-1.304;2023-04-01T14:59:47;99971.94;;;12.17;100.00
73817;BME280;62146;53.232;-1.304;2023-04-01T15:19:31;100005.41;;;12.08;100.00
73817;BME280;62146;53.232;-1.304;2023-04-01T15:24:14;100018.41;;;12.04;100.00
73817;BME280;62146;53.232;-1.304;2023-04-01T15:30:00;100026.38;;;12.00;100.00
73817;BME280;62146;53.232;-1.304;2023-04-01T15:32:50;100038.31;;;11.97;100.00
73817;BME280;62146;53.232;-1.304;2023-04-01T15:38:06;100046.25;;;11.92;100.00
73817;BME280;62146;53.232;-1.304;2023-04-01T15:40:49;100050.22;;;11.90;100.00
73817;BME280;62146;53.232;-1.304;2023-04-01T15:43:43;100056.81;;;11.87;100.00
73817;BME280;62146;53.232;-1.304;2023-04-01T15:54:27;100066.41;;;11.88;100.00
73817;BME280;62146;53.232;-1.304;2023-04-01T16:02:48;100084.25;;;11.93;100.00
73817;BME280;62146;53.232;-1.304;2023-04-01T16:05:34;100086.63;;;11.94;100.00
73817;BME280;62146;53.232;-1.304;2023-04-01T16:11:19;100101.53;;;11.95;100.00
73817;BME280;62146;53.232;-1.304;2023-04-01T16:14:07;100108.47;;;11.96;100.00
73817;BME280;62146;53.232;-1.304;2023-04-01T16:20:42;100119.59;;;11.93;100.00
73817;BME280;62146;53.232;-1.304;2023-04-01T16:25:40;100133.09;;;11.87;100.00
73817;BME280;62146;53.232;-1.304;2023-04-01T16:31:10;100136.22;;;11.79;100.00
73817;BME280;62146;53.232;-1.304;2023-04-01T16:33:43;100148.13;;;11.77;100.00
73817;BME280;62146;53.232;-1.304;2023-04-01T16:36:36;100166.16;;;11.70;100.00
73817;BME280;62146;53.232;-1.304;2023-04-01T16:47:48;100162.75;;;11.48;100.00
73817;BME280;62146;53.232;-1.304;2023-04-01T16:50:23;100174.13;;;11.44;100.00
73817;BME280;62146;53.232;-1.304;2023-04-01T16:53:08;100173.81;;;11.40;100.00
73817;BME280;62146;53.232;-1.304;2023-04-01T16:55:54;100183.56;;;11.35;100.00
73817;BME280;62146;53.232;-1.304;2023-04-01T17:03:44;100186.41;;;11.28;100.00
73817;BME280;62146;53.232;-1.304;2023-04-01T17:14:58;100210.69;;;11.16;100.00
73817;BME280;62146;53.232;-1.304;2023-04-01T17:20:09;100215.38;;;11.09;100.00
73817;BME280;62146;53.232;-1.304;2023-04-01T17:23:23;100230.72;;;11.07;100.00
73817;BME280;62146;53.232;-1.304;2023-04-01T17:34:39;100259.81;;;10.97;100.00
73817;BME280;62146;53.232;-1.304;2023-04-01T17:42:48;100271.97;;;10.77;100.00
73817;BME280;62146;53.232;-1.304;2023-04-01T17:55:51;100306.31;;;10.67;100.00
73817;BME280;62146;53.232;-1.304;2023-04-01T17:58:22;100313.13;;;10.63;100.00
73817;BME280;62146;53.232;-1.304;2023-04-01T18:01:26;100312.34;;;10.63;100.00
73817;BME280;62146;53.232;-1.304;2023-04-01T18:04:08;100319.19;;;10.59;100.00
73817;BME280;62146;53.232;-1.304;2023-04-01T18:09:39;100326.56;;;10.57;100.00
73817;BME280;62146;53.232;-1.304;2023-04-01T18:12:36;100340.88;;;10.56;100.00
73817;BME280;62146;53.232;-1.304;2023-04-01T18:21:22;100358.75;;;10.49;100.00
73817;BME280;62146;53.232;-1.304;2023-04-01T18:23:58;100357.63;;;10.45;100.00
73817;BME280;62146;53.232;-1.304;2023-04-01T18:26:32;100361.81;;;10.41;100.00
73817;BME280;62146;53.232;-1.304;2023-04-01T18:35:17;100386.59;;;10.35;100.00
73817;BME280;62146;53.232;-1.304;2023-04-01T18:40:33;100394.47;;;10.30;100.00
73817;BME280;62146;53.232;-1.304;2023-04-01T18:43:16;100401.53;;;10.25;100.00
73817;BME280;62146;53.232;-1.304;2023-04-01T18:45:57;100415.59;;;10.25;100.00
73817;BME280;62146;53.232;-1.304;2023-04-01T18:48:49;100413.66;;;10.21;100.00
73817;BME280;62146;53.232;-1.304;2023-04-01T18:51:23;100419.44;;;10.18;100.00
73817;BME280;62146;53.232;-1.304;2023-04-01T18:54:00;100435.31;;;10.18;100.00
73817;BME280;62146;53.232;-1.304;2023-04-01T18:56:43;100441.91;;;10.16;100.00
73817;BME280;62146;53.232;-1.304;2023-04-01T19:02:20;100449.75;;;10.11;100.00
73817;BME280;62146;53.232;-1.304;2023-04-01T19:05:10;100457.13;;;10.09;100.00
73817;BME280;62146;53.232;-1.304;2023-04-01T19:07:53;100464.25;;;10.08;100.00
73817;BME280;62146;53.232;-1.304;2023-04-01T19:21:58;100493.78;;;10.00;100.00
73817;BME280;62146;53.232;-1.304;2023-04-01T19:27:31;100500.03;;;9.94;100.00
73817;BME280;62146;53.232;-1.304;2023-04-01T19:35:31;100513.97;;;9.90;100.00
73817;BME280;62146;53.232;-1.304;2023-04-01T19:40:55;100519.25;;;9.90;100.00
73817;BME280;62146;53.232;-1.304;2023-04-01T19:49:17;100530.53;;;9.86;100.00
73817;BME280;62146;53.232;-1.304;2023-04-01T19:57:37;100540.19;;;9.80;100.00
73817;BME280;62146;53.232;-1.304;2023-04-01T20:00:20;100550.53;;;9.82;100.00
73817;BME280;62146;53.232;-1.304;2023-04-01T20:08:51;100562.88;;;9.76;100.00
73817;BME280;62146;53.232;-1.304;2023-04-01T20:19:29;100575.75;;;9.73;100.00
73817;BME280;62146;53.232;-1.304;2023-04-01T20:22:00;100589.25;;;9.71;100.00
73817;BME280;62146;53.232;-1.304;2023-04-01T20:24:44;100594.75;;;9.70;100.00
73817;BME280;62146;53.232;-1.304;2023-04-01T20:41:49;100613.50;;;9.57;100.00
73817;BME280;62146;53.232;-1.304;2023-04-01T20:49:40;100632.56;;;9.48;100.00
73817;BME280;62146;53.232;-1.304;2023-04-01T21:00:23;100654.78;;;9.47;100.00
73817;BME280;62146;53.232;-1.304;2023-04-01T21:05:59;100674.81;;;9.43;100.00
73817;BME280;62146;53.232;-1.304;2023-04-01T21:08:53;100676.66;;;9.42;100.00
73817;BME280;62146;53.232;-1.304;2023-04-01T21:11:42;100682.97;;;9.41;100.00
73817;BME280;62146;53.232;-1.304;2023-04-01T21:14:42;100682.38;;;9.39;100.00
73817;BME280;62146;53.232;-1.304;2023-04-01T21:17:37;100687.69;;;9.39;100.00
73817;BME280;62146;53.232;-1.304;2023-04-01T21:20:37;100699.31;;;9.38;100.00
73817;BME280;62146;53.232;-1.304;2023-04-01T21:23:20;100703.19;;;9.36;100.00
73817;BME280;62146;53.232;-1.304;2023-04-01T21:53:09;100744.84;;;9.11;100.00
73817;BME280;62146;53.232;-1.304;2023-04-01T22:07:17;100759.97;;;9.05;100.00
73817;BME280;62146;53.232;-1.304;2023-04-01T22:12:45;100763.72;;;8.97;100.00
73817;BME280;62146;53.232;-1.304;2023-04-01T22:18:06;100771.88;;;8.96;100.00
73817;BME280;62146;53.232;-1.304;2023-04-01T22:26:32;100783.75;;;8.87;100.00
73817;BME280;62146;53.232;-1.304;2023-04-01T22:29:22;100790.09;;;8.86;100.00
73817;BME280;62146;53.232;-1.304;2023-04-01T22:32:27;100796.41;;;8.85;100.00
73817;BME280;62146;53.232;-1.304;2023-04-01T22:37:48;100810.50;;;8.79;100.00
73817;BME280;62146;53.232;-1.304;2023-04-01T22:42:59;100808.72;;;8.73;100.00
73817;BME280;62146;53.232;-1.304;2023-04-01T22:48:44;100818.56;;;8.66;100.00
73817;BME280;62146;53.232;-1.304;2023-04-01T22:56:37;100827.94;;;8.62;100.00
73817;BME280;62146;53.232;-1.304;2023-04-01T22:59:31;100831.00;;;8.59;100.00
73817;BME280;62146;53.232;-1.304;2023-04-01T23:02:04;100835.72;;;8.57;100.00
73817;BME280;62146;53.232;-1.304;2023-04-01T23:04:37;100846.50;;;8.56;100.00
73817;BME280;62146;53.232;-1.304;2023-04-01T23:07:24;100848.13;;;8.57;100.00
73817;BME280;62146;53.232;-1.304;2023-04-01T23:09:56;100848.56;;;8.54;100.00
73817;BME280;62146;53.232;-1.304;2023-04-01T23:12:25;100852.22;;;8.53;100.00
73817;BME280;62146;53.232;-1.304;2023-04-01T23:14:56;100855.69;;;8.54;100.00
73817;BME280;62146;53.232;-1.304;2023-04-01T23:20:32;100868.28;;;8.52;100.00
73817;BME280;62146;53.232;-1.304;2023-04-01T23:28:44;100874.22;;;8.47;100.00
73817;BME280;62146;53.232;-1.304;2023-04-01T23:34:01;100886.63;;;8.47;100.00
73817;BME280;62146;53.232;-1.304;2023-04-01T23:36:29;100894.56;;;8.47;100.00
73817;BME280;62146;53.232;-1.304;2023-04-01T23:39:05;100895.59;;;8.46;100.00
73817;BME280;62146;53.232;-1.304;2023-04-01T23:41:37;100900.88;;;8.46;100.00
73817;BME280;62146;53.232;-1.304;2023-04-01T23:44:10;100907.38;;;8.43;100.00
73817;BME280;62146;53.232;-1.304;2023-04-01T23:46:39;100915.53;;;8.42;100.00
73817;BME280;62146;53.232;-1.304;2023-04-01T23:49:13;100904.97;;;8.42;100.00